Hannibal, WI (54439)

6:18 PM CST on February 11, 2016 (GMT -0600)
N Gilman Dr | | Change Station
CLOSE
Current Station
Personal Weather Station
Location: Gilman, WI
Elevation: 1237 ft
Nearby Weather Stations

Elev 1237 ft 45.17 °N, 90.82 °W | Updated 2 minutes ago

Overcast
Overcast
10.6 °F
Feels Like 11 °F
N
2.0
Wind Variable Wind from West
Gusts 7.0 mph

Today
High -- | Low -- °F
--% Chance of Precip.
Yesterday
High -- | Low -- °F
Precip. -- in
Pressure 30.19 in
Visibility 10.0 miles
Clouds Overcast 5000 ft
Windchill 11 °F
Dew Point -2 °F
Humidity 55%
Rainfall 0.00 in
Snow Depth Not available.
7:10 AM 5:24 PM
Waxing Crescent, 15% visible
METAR KRCX 112355Z AUTO 25006KT 10SM OVC050 M10/M21 A3019 RMK AO2 T11011206 11088 21127
Pressure 30.19 in
Visibility 10.0 miles
Clouds Overcast 5000 ft
Windchill 11 °F
Dew Point -2 °F
Humidity 55%
Rainfall 0.00 in
Snow Depth Not available.
7:10 AM 5:24 PM
Waxing Crescent, 15% visible
METAR KRCX 112355Z AUTO 25006KT 10SM OVC050 M10/M21 A3019 RMK AO2 T11011206 11088 21127

10-Day Weather Forecast

Almanac

Astronomy

Feb. 11, 2016 Rise Set
Actual Time
Civil Twilight
Nautical Twilight
Astronomical Twilight
Moon
Length of Visible Light
Length of Day
Tomorrow will be .
, % of the Moon is Illuminated

Today's Extremes

State Highs State Lows

Community

WunderPhotos

Upload Photos

1,892,186 photos uploaded!

WunderBlog® & News

Nearby

Air Quality

  Air Quality AQ Index Pollutant
Not available.

Snow Depth

Station Depth Elevation

Earthquake Activity

City Distance Mag. Time & Date
Minimum magnitude displayed is 2.5.

Coastal Water Temperatures

Place Temperature

Stations

Nearby Weather Stations

Station Location Temp. Windchill Dew Point Humidity Wind Precip. Elev Updated Type
                   

Watches & Warnings

There are currently no watches in effect.